sensor_id;sensor_type;location;lat;lon;timestamp;temperature;humidity
17421;DHT22;8828;48.800;9.540;2023-06-14T00:01:04;18.00;74.40
17421;DHT22;8828;48.800;9.540;2023-06-14T00:03:33;18.00;74.40
17421;DHT22;8828;48.800;9.540;2023-06-14T00:06:04;17.80;74.40
17421;DHT22;8828;48.800;9.540;2023-06-14T00:08:32;17.70;74.90
17421;DHT22;8828;48.800;9.540;2023-06-14T00:11:03;17.70;74.80
17421;DHT22;8828;48.800;9.540;2023-06-14T00:13:32;17.70;75.30
17421;DHT22;8828;48.800;9.540;2023-06-14T00:16:01;17.60;75.40
17421;DHT22;8828;48.800;9.540;2023-06-14T00:18:37;17.60;75.60
17421;DHT22;8828;48.800;9.540;2023-06-14T00:21:12;17.60;75.80
17421;DHT22;8828;48.800;9.540;2023-06-14T00:23:42;17.60;76.10
17421;DHT22;8828;48.800;9.540;2023-06-14T00:26:21;17.50;76.50
17421;DHT22;8828;48.800;9.540;2023-06-14T00:28:57;17.50;76.80
17421;DHT22;8828;48.800;9.540;2023-06-14T00:31:29;17.40;77.20
17421;DHT22;8828;48.800;9.540;2023-06-14T00:34:00;17.50;77.30
17421;DHT22;8828;48.800;9.540;2023-06-14T00:36:45;17.40;77.30
17421;DHT22;8828;48.800;9.540;2023-06-14T00:39:28;17.40;77.50
17421;DHT22;8828;48.800;9.540;2023-06-14T00:41:57;17.40;78.00
17421;DHT22;8828;48.800;9.540;2023-06-14T00:44:34;17.30;78.30
17421;DHT22;8828;48.800;9.540;2023-06-14T00:47:13;17.30;79.20
17421;DHT22;8828;48.800;9.540;2023-06-14T00:49:41;17.20;78.80
17421;DHT22;8828;48.800;9.540;2023-06-14T00:52:09;17.10;78.90
17421;DHT22;8828;48.800;9.540;2023-06-14T00:54:41;17.10;79.10
17421;DHT22;8828;48.800;9.540;2023-06-14T00:57:10;17.10;79.20
17421;DHT22;8828;48.800;9.540;2023-06-14T00:59:42;17.10;79.50
17421;DHT22;8828;48.800;9.540;2023-06-14T01:02:11;17.00;79.60
17421;DHT22;8828;48.800;9.540;2023-06-14T01:04:43;17.00;79.80
17421;DHT22;8828;48.800;9.540;2023-06-14T01:07:18;17.00;79.80
17421;DHT22;8828;48.800;9.540;2023-06-14T01:10:15;17.00;79.70
17421;DHT22;8828;48.800;9.540;2023-06-14T01:12:48;17.00;79.70
17421;DHT22;8828;48.800;9.540;2023-06-14T01:15:21;16.90;79.90
17421;DHT22;8828;48.800;9.540;2023-06-14T01:17:49;16.90;79.80
17421;DHT22;8828;48.800;9.540;2023-06-14T01:20:19;16.80;80.10
17421;DHT22;8828;48.800;9.540;2023-06-14T01:22:51;16.70;80.30
17421;DHT22;8828;48.800;9.540;2023-06-14T01:25:20;16.70;80.50
17421;DHT22;8828;48.800;9.540;2023-06-14T01:27:50;16.60;80.60
17421;DHT22;8828;48.800;9.540;2023-06-14T01:30:20;16.60;80.90
17421;DHT22;8828;48.800;9.540;2023-06-14T01:32:49;16.60;80.90
17421;DHT22;8828;48.800;9.540;2023-06-14T01:35:18;16.50;81.00
17421;DHT22;8828;48.800;9.540;2023-06-14T01:37:47;16.50;81.00
17421;DHT22;8828;48.800;9.540;2023-06-14T01:40:18;16.50;81.10
17421;DHT22;8828;48.800;9.540;2023-06-14T01:42:47;16.50;81.30
17421;DHT22;8828;48.800;9.540;2023-06-14T01:45:15;16.50;81.50
17421;DHT22;8828;48.800;9.540;2023-06-14T01:47:44;16.50;81.70
17421;DHT22;8828;48.800;9.540;2023-06-14T01:50:13;16.50;81.80
17421;DHT22;8828;48.800;9.540;2023-06-14T01:52:43;16.40;81.70
17421;DHT22;8828;48.800;9.540;2023-06-14T01:55:11;16.40;81.80
17421;DHT22;8828;48.800;9.540;2023-06-14T01:57:40;16.30;82.10
17421;DHT22;8828;48.800;9.540;2023-06-14T02:00:09;16.30;82.10
17421;DHT22;8828;48.800;9.540;2023-06-14T02:02:40;16.30;82.10
17421;DHT22;8828;48.800;9.540;2023-06-14T02:05:08;16.30;82.30
17421;DHT22;8828;48.800;9.540;2023-06-14T02:07:37;16.20;82.40
17421;DHT22;8828;48.800;9.540;2023-06-14T02:10:05;16.30;82.50
17421;DHT22;8828;48.800;9.540;2023-06-14T02:12:33;16.20;82.50
17421;DHT22;8828;48.800;9.540;2023-06-14T02:15:03;16.20;83.40
17421;DHT22;8828;48.800;9.540;2023-06-14T02:17:32;16.20;82.80
17421;DHT22;8828;48.800;9.540;2023-06-14T02:20:01;16.10;83.00
17421;DHT22;8828;48.800;9.540;2023-06-14T02:22:31;16.10;83.00
17421;DHT22;8828;48.800;9.540;2023-06-14T02:24:59;16.10;83.10
17421;DHT22;8828;48.800;9.540;2023-06-14T02:27:28;16.00;83.20
17421;DHT22;8828;48.800;9.540;2023-06-14T02:29:56;16.10;83.40
17421;DHT22;8828;48.800;9.540;2023-06-14T02:32:25;16.10;83.30
17421;DHT22;8828;48.800;9.540;2023-06-14T02:34:54;16.10;83.60
17421;DHT22;8828;48.800;9.540;2023-06-14T02:37:22;16.00;83.70
17421;DHT22;8828;48.800;9.540;2023-06-14T02:39:50;16.00;83.90
17421;DHT22;8828;48.800;9.540;2023-06-14T02:42:18;15.90;84.20
17421;DHT22;8828;48.800;9.540;2023-06-14T02:44:45;15.80;84.70
17421;DHT22;8828;48.800;9.540;2023-06-14T02:47:17;15.80;85.00
17421;DHT22;8828;48.800;9.540;2023-06-14T02:49:47;15.70;85.20
17421;DHT22;8828;48.800;9.540;2023-06-14T02:52:15;15.70;85.60
17421;DHT22;8828;48.800;9.540;2023-06-14T02:54:43;15.70;85.60
17421;DHT22;8828;48.800;9.540;2023-06-14T02:57:12;15.60;85.60
17421;DHT22;8828;48.800;9.540;2023-06-14T02:59:40;15.60;86.00
17421;DHT22;8828;48.800;9.540;2023-06-14T03:02:08;15.60;86.20
17421;DHT22;8828;48.800;9.540;2023-06-14T03:04:37;15.50;86.50
17421;DHT22;8828;48.800;9.540;2023-06-14T03:07:06;15.60;86.60
17421;DHT22;8828;48.800;9.540;2023-06-14T03:09:36;15.60;86.50
17421;DHT22;8828;48.800;9.540;2023-06-14T03:12:05;15.60;86.70
17421;DHT22;8828;48.800;9.540;2023-06-14T03:14:34;15.60;86.70
17421;DHT22;8828;48.800;9.540;2023-06-14T03:17:02;15.60;86.70
17421;DHT22;8828;48.800;9.540;2023-06-14T03:19:31;15.50;86.90
17421;DHT22;8828;48.800;9.540;2023-06-14T03:21:59;15.50;86.90
17421;DHT22;8828;48.800;9.540;2023-06-14T03:24:30;15.50;87.00
17421;DHT22;8828;48.800;9.540;2023-06-14T03:27:04;15.50;87.00
17421;DHT22;8828;48.800;9.540;2023-06-14T03:29:32;15.50;87.00
17421;DHT22;8828;48.800;9.540;2023-06-14T03:32:01;15.50;87.10
17421;DHT22;8828;48.800;9.540;2023-06-14T03:34:29;15.50;87.20
17421;DHT22;8828;48.800;9.540;2023-06-14T03:36:57;15.40;87.40
17421;DHT22;8828;48.800;9.540;2023-06-14T03:39:25;15.50;87.50
17421;DHT22;8828;48.800;9.540;2023-06-14T03:41:54;15.40;87.50
17421;DHT22;8828;48.800;9.540;2023-06-14T03:44:22;15.40;88.20
17421;DHT22;8828;48.800;9.540;2023-06-14T03:46:50;15.40;88.60
17421;DHT22;8828;48.800;9.540;2023-06-14T03:49:18;15.50;88.90
17421;DHT22;8828;48.800;9.540;2023-06-14T03:51:46;15.50;88.80
17421;DHT22;8828;48.800;9.540;2023-06-14T03:54:18;15.50;88.40
17421;DHT22;8828;48.800;9.540;2023-06-14T03:57:07;15.50;88.40
17421;DHT22;8828;48.800;9.540;2023-06-14T03:59:35;15.50;88.50
17421;DHT22;8828;48.800;9.540;2023-06-14T04:02:04;15.50;88.80
17421;DHT22;8828;48.800;9.540;2023-06-14T04:04:32;15.50;88.40
17421;DHT22;8828;48.800;9.540;2023-06-14T04:07:02;15.50;88.50
17421;DHT22;8828;48.800;9.540;2023-06-14T04:09:30;15.50;89.40
17421;DHT22;8828;48.800;9.540;2023-06-14T04:11:58;15.40;88.90
17421;DHT22;8828;48.800;9.540;2023-06-14T04:14:27;15.40;89.20
17421;DHT22;8828;48.800;9.540;2023-06-14T04:16:55;15.40;89.20
17421;DHT22;8828;48.800;9.540;2023-06-14T04:19:23;15.40;89.30
17421;DHT22;8828;48.800;9.540;2023-06-14T04:21:51;15.40;89.40
17421;DHT22;8828;48.800;9.540;2023-06-14T04:24:19;15.40;89.80
17421;DHT22;8828;48.800;9.540;2023-06-14T04:26:48;15.40;89.90
17421;DHT22;8828;48.800;9.540;2023-06-14T04:29:18;15.50;90.20
17421;DHT22;8828;48.800;9.540;2023-06-14T04:31:47;15.50;90.60
17421;DHT22;8828;48.800;9.540;2023-06-14T04:34:16;15.60;90.00
17421;DHT22;8828;48.800;9.540;2023-06-14T04:36:44;15.60;89.50
17421;DHT22;8828;48.800;9.540;2023-06-14T04:39:15;15.70;89.30
17421;DHT22;8828;48.800;9.540;2023-06-14T04:41:44;15.70;88.90
17421;DHT22;8828;48.800;9.540;2023-06-14T04:44:13;15.70;89.20
17421;DHT22;8828;48.800;9.540;2023-06-14T04:46:43;15.70;89.70
17421;DHT22;8828;48.800;9.540;2023-06-14T04:49:14;15.70;90.00
17421;DHT22;8828;48.800;9.540;2023-06-14T04:51:44;15.70;90.10
17421;DHT22;8828;48.800;9.540;2023-06-14T04:54:14;15.70;90.20
17421;DHT22;8828;48.800;9.540;2023-06-14T04:56:42;15.70;90.20
17421;DHT22;8828;48.800;9.540;2023-06-14T04:59:10;15.80;90.30
17421;DHT22;8828;48.800;9.540;2023-06-14T05:01:39;15.80;90.30
17421;DHT22;8828;48.800;9.540;2023-06-14T05:04:07;15.90;90.30
17421;DHT22;8828;48.800;9.540;2023-06-14T05:06:36;15.90;90.50
17421;DHT22;8828;48.800;9.540;2023-06-14T05:09:05;15.90;90.40
17421;DHT22;8828;48.800;9.540;2023-06-14T05:11:32;16.00;90.40
17421;DHT22;8828;48.800;9.540;2023-06-14T05:14:00;15.90;90.50
17421;DHT22;8828;48.800;9.540;2023-06-14T05:16:28;16.00;90.20
17421;DHT22;8828;48.800;9.540;2023-06-14T05:18:57;16.00;90.20
17421;DHT22;8828;48.800;9.540;2023-06-14T05:21:25;16.00;90.20
17421;DHT22;8828;48.800;9.540;2023-06-14T05:23:54;16.10;90.30
17421;DHT22;8828;48.800;9.540;2023-06-14T05:26:22;16.10;90.10
17421;DHT22;8828;48.800;9.540;2023-06-14T05:28:55;16.20;90.20
17421;DHT22;8828;48.800;9.540;2023-06-14T05:31:23;16.30;90.00
17421;DHT22;8828;48.800;9.540;2023-06-14T05:33:53;16.30;90.00
17421;DHT22;8828;48.800;9.540;2023-06-14T05:36:21;16.40;89.90
17421;DHT22;8828;48.800;9.540;2023-06-14T05:38:49;16.40;89.60
17421;DHT22;8828;48.800;9.540;2023-06-14T05:41:25;16.40;88.60
17421;DHT22;8828;48.800;9.540;2023-06-14T05:43:54;16.50;89.00
17421;DHT22;8828;48.800;9.540;2023-06-14T05:46:23;16.60;88.50
17421;DHT22;8828;48.800;9.540;2023-06-14T05:48:53;16.60;89.10
17421;DHT22;8828;48.800;9.540;2023-06-14T05:51:22;16.70;89.20
17421;DHT22;8828;48.800;9.540;2023-06-14T05:53:52;16.80;88.60
17421;DHT22;8828;48.800;9.540;2023-06-14T05:56:21;16.80;89.20
17421;DHT22;8828;48.800;9.540;2023-06-14T05:58:50;16.80;88.50
17421;DHT22;8828;48.800;9.540;2023-06-14T06:01:18;16.90;88.50
17421;DHT22;8828;48.800;9.540;2023-06-14T06:03:46;16.90;88.10
17421;DHT22;8828;48.800;9.540;2023-06-14T06:06:15;17.00;88.00
17421;DHT22;8828;48.800;9.540;2023-06-14T06:08:43;17.00;87.40
17421;DHT22;8828;48.800;9.540;2023-06-14T06:11:11;17.10;87.30
17421;DHT22;8828;48.800;9.540;2023-06-14T06:13:39;17.20;88.00
17421;DHT22;8828;48.800;9.540;2023-06-14T06:16:08;17.30;88.50
17421;DHT22;8828;48.800;9.540;2023-06-14T06:18:36;17.40;90.00
17421;DHT22;8828;48.800;9.540;2023-06-14T06:21:06;17.50;90.70
17421;DHT22;8828;48.800;9.540;2023-06-14T06:23:34;17.60;91.40
17421;DHT22;8828;48.800;9.540;2023-06-14T06:26:04;17.70;92.40
17421;DHT22;8828;48.800;9.540;2023-06-14T06:28:35;17.80;94.30
17421;DHT22;8828;48.800;9.540;2023-06-14T06:31:03;17.90;93.60
17421;DHT22;8828;48.800;9.540;2023-06-14T06:33:33;18.10;92.50
17421;DHT22;8828;48.800;9.540;2023-06-14T06:36:02;18.10;92.40
17421;DHT22;8828;48.800;9.540;2023-06-14T06:38:39;18.00;92.50
17421;DHT22;8828;48.800;9.540;2023-06-14T06:41:10;18.30;92.40
17421;DHT22;8828;48.800;9.540;2023-06-14T06:43:38;18.30;93.70
17421;DHT22;8828;48.800;9.540;2023-06-14T06:46:06;18.40;92.40
17421;DHT22;8828;48.800;9.540;2023-06-14T06:48:36;18.50;91.00
17421;DHT22;8828;48.800;9.540;2023-06-14T06:51:04;18.50;90.70
17421;DHT22;8828;48.800;9.540;2023-06-14T06:53:32;18.60;90.60
17421;DHT22;8828;48.800;9.540;2023-06-14T06:56:09;18.70;90.10
17421;DHT22;8828;48.800;9.540;2023-06-14T06:58:37;18.80;90.00
17421;DHT22;8828;48.800;9.540;2023-06-14T07:01:05;18.80;89.30
17421;DHT22;8828;48.800;9.540;2023-06-14T07:03:37;18.90;88.90
17421;DHT22;8828;48.800;9.540;2023-06-14T07:06:05;19.00;89.30
17421;DHT22;8828;48.800;9.540;2023-06-14T07:08:33;19.00;88.70
17421;DHT22;8828;48.800;9.540;2023-06-14T07:11:02;19.10;88.20
17421;DHT22;8828;48.800;9.540;2023-06-14T07:13:30;19.20;87.90
17421;DHT22;8828;48.800;9.540;2023-06-14T07:15:59;19.20;86.90
17421;DHT22;8828;48.800;9.540;2023-06-14T07:18:27;19.30;86.80
17421;DHT22;8828;48.800;9.540;2023-06-14T07:20:57;19.40;88.10
17421;DHT22;8828;48.800;9.540;2023-06-14T07:23:25;19.50;87.60
17421;DHT22;8828;48.800;9.540;2023-06-14T07:25:54;19.60;87.60
17421;DHT22;8828;48.800;9.540;2023-06-14T07:28:22;19.60;86.50
17421;DHT22;8828;48.800;9.540;2023-06-14T07:30:50;19.70;85.40
17421;DHT22;8828;48.800;9.540;2023-06-14T07:33:18;19.80;85.60
17421;DHT22;8828;48.800;9.540;2023-06-14T07:35:46;19.90;85.60
17421;DHT22;8828;48.800;9.540;2023-06-14T07:38:16;19.90;86.00
17421;DHT22;8828;48.800;9.540;2023-06-14T07:40:43;20.00;83.40
17421;DHT22;8828;48.800;9.540;2023-06-14T07:43:12;20.00;81.70
17421;DHT22;8828;48.800;9.540;2023-06-14T07:45:39;20.10;81.70
17421;DHT22;8828;48.800;9.540;2023-06-14T07:48:19;20.10;81.80
17421;DHT22;8828;48.800;9.540;2023-06-14T07:50:48;20.20;81.30
17421;DHT22;8828;48.800;9.540;2023-06-14T07:53:17;20.30;80.80
17421;DHT22;8828;48.800;9.540;2023-06-14T07:55:45;20.40;80.60
17421;DHT22;8828;48.800;9.540;2023-06-14T07:58:19;20.50;80.30
17421;DHT22;8828;48.800;9.540;2023-06-14T08:00:47;20.60;79.60
17421;DHT22;8828;48.800;9.540;2023-06-14T08:03:16;20.60;79.10
17421;DHT22;8828;48.800;9.540;2023-06-14T08:05:45;20.70;79.30
17421;DHT22;8828;48.800;9.540;2023-06-14T08:08:13;20.80;79.40
17421;DHT22;8828;48.800;9.540;2023-06-14T08:10:42;20.80;78.00
17421;DHT22;8828;48.800;9.540;2023-06-14T08:13:10;20.90;78.80
17421;DHT22;8828;48.800;9.540;2023-06-14T08:15:38;21.00;77.60
17421;DHT22;8828;48.800;9.540;2023-06-14T08:18:06;21.00;77.80
17421;DHT22;8828;48.800;9.540;2023-06-14T08:20:34;21.10;78.40
17421;DHT22;8828;48.800;9.540;2023-06-14T08:23:03;21.20;77.90
17421;DHT22;8828;48.800;9.540;2023-06-14T08:25:31;21.30;77.50
17421;DHT22;8828;48.800;9.540;2023-06-14T08:28:00;21.30;76.30
17421;DHT22;8828;48.800;9.540;2023-06-14T08:30:28;21.80;74.50
17421;DHT22;8828;48.800;9.540;2023-06-14T08:32:56;22.30;74.80
17421;DHT22;8828;48.800;9.540;2023-06-14T08:35:42;22.80;74.30
17421;DHT22;8828;48.800;9.540;2023-06-14T08:38:10;23.30;72.80
17421;DHT22;8828;48.800;9.540;2023-06-14T08:40:40;23.70;71.50
17421;DHT22;8828;48.800;9.540;2023-06-14T08:43:12;24.10;69.80
17421;DHT22;8828;48.800;9.540;2023-06-14T08:45:41;24.50;68.60
17421;DHT22;8828;48.800;9.540;2023-06-14T08:48:09;24.80;68.60
17421;DHT22;8828;48.800;9.540;2023-06-14T08:50:40;25.00;67.00
17421;DHT22;8828;48.800;9.540;2023-06-14T08:53:11;25.20;66.80
17421;DHT22;8828;48.800;9.540;2023-06-14T08:55:43;25.30;65.90
17421;DHT22;8828;48.800;9.540;2023-06-14T08:58:12;25.50;65.40
17421;DHT22;8828;48.800;9.540;2023-06-14T09:00:41;25.60;64.30
17421;DHT22;8828;48.800;9.540;2023-06-14T09:03:11;26.00;63.60
17421;DHT22;8828;48.800;9.540;2023-06-14T09:05:41;26.20;61.70
17421;DHT22;8828;48.800;9.540;2023-06-14T09:08:10;26.40;61.50
17421;DHT22;8828;48.800;9.540;2023-06-14T09:10:39;26.60;62.70
17421;DHT22;8828;48.800;9.540;2023-06-14T09:13:08;26.70;61.40
17421;DHT22;8828;48.800;9.540;2023-06-14T09:15:37;26.80;61.60
17421;DHT22;8828;48.800;9.540;2023-06-14T09:18:05;26.90;60.90
17421;DHT22;8828;48.800;9.540;2023-06-14T09:20:33;27.10;61.70
17421;DHT22;8828;48.800;9.540;2023-06-14T09:23:03;27.40;60.60
17421;DHT22;8828;48.800;9.540;2023-06-14T09:25:32;27.60;59.80
17421;DHT22;8828;48.800;9.540;2023-06-14T09:28:09;28.00;58.80
17421;DHT22;8828;48.800;9.540;2023-06-14T09:30:39;28.00;58.50
17421;DHT22;8828;48.800;9.540;2023-06-14T09:33:07;27.90;58.20
17421;DHT22;8828;48.800;9.540;2023-06-14T09:35:35;27.90;59.80
17421;DHT22;8828;48.800;9.540;2023-06-14T09:38:03;28.10;58.30
17421;DHT22;8828;48.800;9.540;2023-06-14T09:40:36;28.10;58.10
17421;DHT22;8828;48.800;9.540;2023-06-14T09:43:06;28.10;57.80
17421;DHT22;8828;48.800;9.540;2023-06-14T09:45:35;27.90;57.70
17421;DHT22;8828;48.800;9.540;2023-06-14T09:48:06;27.90;56.80
17421;DHT22;8828;48.800;9.540;2023-06-14T09:50:35;27.70;56.50
17421;DHT22;8828;48.800;9.540;2023-06-14T09:53:06;27.60;57.10
17421;DHT22;8828;48.800;9.540;2023-06-14T09:55:36;27.40;56.80
17421;DHT22;8828;48.800;9.540;2023-06-14T09:58:05;27.20;57.30
17421;DHT22;8828;48.800;9.540;2023-06-14T10:00:35;27.30;57.50
17421;DHT22;8828;48.800;9.540;2023-06-14T10:03:13;27.40;57.80
17421;DHT22;8828;48.800;9.540;2023-06-14T10:05:45;27.50;56.90
17421;DHT22;8828;48.800;9.540;2023-06-14T10:08:14;27.50;56.10
17421;DHT22;8828;48.800;9.540;2023-06-14T10:10:44;27.40;57.10
17421;DHT22;8828;48.800;9.540;2023-06-14T10:13:12;27.40;56.50
17421;DHT22;8828;48.800;9.540;2023-06-14T10:15:47;27.50;57.00
17421;DHT22;8828;48.800;9.540;2023-06-14T10:18:24;27.80;57.60
17421;DHT22;8828;48.800;9.540;2023-06-14T10:21:04;28.00;56.50
17421;DHT22;8828;48.800;9.540;2023-06-14T10:23:37;28.20;55.50
17421;DHT22;8828;48.800;9.540;2023-06-14T10:26:12;28.30;54.80
17421;DHT22;8828;48.800;9.540;2023-06-14T10:28:55;28.30;55.70
17421;DHT22;8828;48.800;9.540;2023-06-14T10:31:40;28.40;55.30
17421;DHT22;8828;48.800;9.540;2023-06-14T10:34:10;28.50;55.80
17421;DHT22;8828;48.800;9.540;2023-06-14T10:36:42;28.50;55.40
17421;DHT22;8828;48.800;9.540;2023-06-14T10:39:14;28.70;55.90
17421;DHT22;8828;48.800;9.540;2023-06-14T10:41:50;28.90;56.10
17421;DHT22;8828;48.800;9.540;2023-06-14T10:44:39;29.00;55.30
17421;DHT22;8828;48.800;9.540;2023-06-14T10:47:09;29.10;55.10
17421;DHT22;8828;48.800;9.540;2023-06-14T10:49:43;29.00;55.30
17421;DHT22;8828;48.800;9.540;2023-06-14T10:52:13;29.00;55.20
17421;DHT22;8828;48.800;9.540;2023-06-14T10:55:03;28.80;54.40
17421;DHT22;8828;48.800;9.540;2023-06-14T10:57:33;28.50;54.50
17421;DHT22;8828;48.800;9.540;2023-06-14T11:00:17;28.40;55.30
17421;DHT22;8828;48.800;9.540;2023-06-14T11:05:49;28.50;55.20
17421;DHT22;8828;48.800;9.540;2023-06-14T11:08:50;28.70;55.50
17421;DHT22;8828;48.800;9.540;2023-06-14T11:11:22;28.90;55.40
17421;DHT22;8828;48.800;9.540;2023-06-14T11:13:51;29.00;55.10
17421;DHT22;8828;48.800;9.540;2023-06-14T11:16:19;29.00;53.90
17421;DHT22;8828;48.800;9.540;2023-06-14T11:18:48;28.90;55.00
17421;DHT22;8828;48.800;9.540;2023-06-14T11:21:18;29.10;54.50
17421;DHT22;8828;48.800;9.540;2023-06-14T11:23:50;29.00;54.40
17421;DHT22;8828;48.800;9.540;2023-06-14T11:26:26;28.90;54.90
17421;DHT22;8828;48.800;9.540;2023-06-14T11:28:56;28.70;55.20
17421;DHT22;8828;48.800;9.540;2023-06-14T11:31:24;28.70;55.00
17421;DHT22;8828;48.800;9.540;2023-06-14T11:33:54;28.70;54.40
17421;DHT22;8828;48.800;9.540;2023-06-14T11:36:26;28.70;54.60
17421;DHT22;8828;48.800;9.540;2023-06-14T11:38:59;28.90;55.10
17421;DHT22;8828;48.800;9.540;2023-06-14T11:41:33;29.00;55.10
17421;DHT22;8828;48.800;9.540;2023-06-14T11:44:01;29.20;54.80
17421;DHT22;8828;48.800;9.540;2023-06-14T11:46:30;29.40;54.80
17421;DHT22;8828;48.800;9.540;2023-06-14T11:48:58;29.30;53.80
17421;DHT22;8828;48.800;9.540;2023-06-14T11:51:31;29.20;53.80
17421;DHT22;8828;48.800;9.540;2023-06-14T11:54:00;29.10;53.90
17421;DHT22;8828;48.800;9.540;2023-06-14T11:56:29;29.00;53.70
17421;DHT22;8828;48.800;9.540;2023-06-14T11:58:58;28.90;53.60
17421;DHT22;8828;48.800;9.540;2023-06-14T12:01:27;28.60;54.00
17421;DHT22;8828;48.800;9.540;2023-06-14T12:03:59;28.60;54.50
17421;DHT22;8828;48.800;9.540;2023-06-14T12:06:28;28.60;54.40
17421;DHT22;8828;48.800;9.540;2023-06-14T12:09:03;28.60;54.70
17421;DHT22;8828;48.800;9.540;2023-06-14T12:11:34;28.60;54.20
17421;DHT22;8828;48.800;9.540;2023-06-14T12:14:03;28.70;54.20
17421;DHT22;8828;48.800;9.540;2023-06-14T12:16:33;28.80;54.50
17421;DHT22;8828;48.800;9.540;2023-06-14T12:19:12;28.90;54.60
17421;DHT22;8828;48.800;9.540;2023-06-14T12:21:40;28.90;54.20
17421;DHT22;8828;48.800;9.540;2023-06-14T12:24:12;28.80;54.50
17421;DHT22;8828;48.800;9.540;2023-06-14T12:26:41;28.90;54.60
17421;DHT22;8828;48.800;9.540;2023-06-14T12:29:09;28.90;54.60
17421;DHT22;8828;48.800;9.540;2023-06-14T12:31:39;28.90;55.00
17421;DHT22;8828;48.800;9.540;2023-06-14T12:34:07;28.90;54.60
17421;DHT22;8828;48.800;9.540;2023-06-14T12:36:36;28.90;55.20
17421;DHT22;8828;48.800;9.540;2023-06-14T12:39:10;29.10;55.20
17421;DHT22;8828;48.800;9.540;2023-06-14T12:41:38;29.20;54.80
17421;DHT22;8828;48.800;9.540;2023-06-14T12:44:08;29.30;54.60
17421;DHT22;8828;48.800;9.540;2023-06-14T12:46:36;29.20;54.40
17421;DHT22;8828;48.800;9.540;2023-06-14T12:49:07;28.90;54.70
17421;DHT22;8828;48.800;9.540;2023-06-14T12:51:36;28.60;54.80
17421;DHT22;8828;48.800;9.540;2023-06-14T12:54:04;28.30;55.30
17421;DHT22;8828;48.800;9.540;2023-06-14T12:56:33;28.00;55.20
17421;DHT22;8828;48.800;9.540;2023-06-14T12:59:01;27.60;54.60
17421;DHT22;8828;48.800;9.540;2023-06-14T13:01:29;27.40;55.70
17421;DHT22;8828;48.800;9.540;2023-06-14T13:03:57;27.20;55.40
17421;DHT22;8828;48.800;9.540;2023-06-14T13:06:25;27.00;55.90
17421;DHT22;8828;48.800;9.540;2023-06-14T13:08:53;26.90;56.30
17421;DHT22;8828;48.800;9.540;2023-06-14T13:11:24;26.80;56.60
17421;DHT22;8828;48.800;9.540;2023-06-14T13:13:53;26.80;56.60
17421;DHT22;8828;48.800;9.540;2023-06-14T13:16:21;26.70;57.30
17421;DHT22;8828;48.800;9.540;2023-06-14T13:18:49;26.60;57.40
17421;DHT22;8828;48.800;9.540;2023-06-14T13:21:18;26.60;57.50
17421;DHT22;8828;48.800;9.540;2023-06-14T13:23:46;26.50;57.50
17421;DHT22;8828;48.800;9.540;2023-06-14T13:26:14;26.50;57.90
17421;DHT22;8828;48.800;9.540;2023-06-14T13:28:42;26.50;57.90
17421;DHT22;8828;48.800;9.540;2023-06-14T13:31:11;26.40;57.70
17421;DHT22;8828;48.800;9.540;2023-06-14T13:33:39;26.30;57.60
17421;DHT22;8828;48.800;9.540;2023-06-14T13:36:07;26.30;57.50
17421;DHT22;8828;48.800;9.540;2023-06-14T13:38:35;26.20;57.50
17421;DHT22;8828;48.800;9.540;2023-06-14T13:41:03;26.10;57.50
17421;DHT22;8828;48.800;9.540;2023-06-14T13:43:31;26.00;57.80
17421;DHT22;8828;48.800;9.540;2023-06-14T13:45:59;25.90;57.90
17421;DHT22;8828;48.800;9.540;2023-06-14T13:48:29;25.80;57.70
17421;DHT22;8828;48.800;9.540;2023-06-14T13:50:59;25.70;58.10
17421;DHT22;8828;48.800;9.540;2023-06-14T13:53:27;25.60;58.10
17421;DHT22;8828;48.800;9.540;2023-06-14T13:55:55;25.50;58.40
17421;DHT22;8828;48.800;9.540;2023-06-14T13:58:23;25.40;58.60
17421;DHT22;8828;48.800;9.540;2023-06-14T14:00:51;25.30;58.70
17421;DHT22;8828;48.800;9.540;2023-06-14T14:03:19;25.30;58.80
17421;DHT22;8828;48.800;9.540;2023-06-14T14:05:49;25.30;58.80
17421;DHT22;8828;48.800;9.540;2023-06-14T14:08:16;25.20;58.80
17421;DHT22;8828;48.800;9.540;2023-06-14T14:10:45;25.20;59.10
17421;DHT22;8828;48.800;9.540;2023-06-14T14:13:13;25.10;58.80
17421;DHT22;8828;48.800;9.540;2023-06-14T14:15:41;25.10;58.90
17421;DHT22;8828;48.800;9.540;2023-06-14T14:18:09;25.10;58.70
17421;DHT22;8828;48.800;9.540;2023-06-14T14:20:37;25.10;58.70
17421;DHT22;8828;48.800;9.540;2023-06-14T14:23:06;25.10;58.60
17421;DHT22;8828;48.800;9.540;2023-06-14T14:25:34;25.00;58.80
17421;DHT22;8828;48.800;9.540;2023-06-14T14:28:03;25.00;59.00
17421;DHT22;8828;48.800;9.540;2023-06-14T14:30:31;25.00;59.00
17421;DHT22;8828;48.800;9.540;2023-06-14T14:32:59;25.00;59.40
17421;DHT22;8828;48.800;9.540;2023-06-14T14:35:27;25.00;59.20
17421;DHT22;8828;48.800;9.540;2023-06-14T14:37:57;25.00;59.10
17421;DHT22;8828;48.800;9.540;2023-06-14T14:40:27;25.00;59.60
17421;DHT22;8828;48.800;9.540;2023-06-14T14:42:55;25.00;59.50
17421;DHT22;8828;48.800;9.540;2023-06-14T14:45:22;25.00;59.40
17421;DHT22;8828;48.800;9.540;2023-06-14T14:47:51;25.00;59.50
17421;DHT22;8828;48.800;9.540;2023-06-14T14:50:21;25.00;59.00
17421;DHT22;8828;48.800;9.540;2023-06-14T14:52:49;25.10;59.20
17421;DHT22;8828;48.800;9.540;2023-06-14T14:55:17;25.10;59.10
17421;DHT22;8828;48.800;9.540;2023-06-14T14:57:47;25.10;58.70
17421;DHT22;8828;48.800;9.540;2023-06-14T15:00:17;25.10;58.70
17421;DHT22;8828;48.800;9.540;2023-06-14T15:02:45;25.20;58.30
17421;DHT22;8828;48.800;9.540;2023-06-14T15:05:13;25.20;58.30
17421;DHT22;8828;48.800;9.540;2023-06-14T15:07:41;25.20;58.60
17421;DHT22;8828;48.800;9.540;2023-06-14T15:10:10;25.10;58.70
17421;DHT22;8828;48.800;9.540;2023-06-14T15:12:38;25.20;59.30
17421;DHT22;8828;48.800;9.540;2023-06-14T15:15:08;25.20;58.10
17421;DHT22;8828;48.800;9.540;2023-06-14T15:17:37;25.20;57.70
17421;DHT22;8828;48.800;9.540;2023-06-14T15:20:06;25.20;58.00
17421;DHT22;8828;48.800;9.540;2023-06-14T15:22:34;25.20;58.10
17421;DHT22;8828;48.800;9.540;2023-06-14T15:25:02;25.10;58.30
17421;DHT22;8828;48.800;9.540;2023-06-14T15:27:30;25.10;58.30
17421;DHT22;8828;48.800;9.540;2023-06-14T15:29:58;25.20;58.30
17421;DHT22;8828;48.800;9.540;2023-06-14T15:32:28;25.10;58.10
17421;DHT22;8828;48.800;9.540;2023-06-14T15:34:56;25.20;57.80
17421;DHT22;8828;48.800;9.540;2023-06-14T15:37:24;25.10;57.90
17421;DHT22;8828;48.800;9.540;2023-06-14T15:39:52;25.10;58.20
17421;DHT22;8828;48.800;9.540;2023-06-14T15:42:20;25.10;58.40
17421;DHT22;8828;48.800;9.540;2023-06-14T15:44:48;25.10;59.20
17421;DHT22;8828;48.800;9.540;2023-06-14T15:47:16;25.10;58.60
17421;DHT22;8828;48.800;9.540;2023-06-14T15:49:45;25.00;58.20
17421;DHT22;8828;48.800;9.540;2023-06-14T15:52:13;25.00;58.50
17421;DHT22;8828;48.800;9.540;2023-06-14T15:54:41;25.00;58.70
17421;DHT22;8828;48.800;9.540;2023-06-14T15:57:09;25.00;58.50
17421;DHT22;8828;48.800;9.540;2023-06-14T15:59:38;24.90;58.40
17421;DHT22;8828;48.800;9.540;2023-06-14T16:02:06;24.90;58.40
17421;DHT22;8828;48.800;9.540;2023-06-14T16:04:34;24.90;59.00